sensor_id;sensor_type;location;lat;lon;timestamp;temperature;humidity
3504;DHT22;1766;53.490;10.174;2023-12-07T00:01:14;8.10;54.20
3504;DHT22;1766;53.490;10.174;2023-12-07T00:03:16;8.10;54.10
3504;DHT22;1766;53.490;10.174;2023-12-07T00:05:18;8.00;54.10
3504;DHT22;1766;53.490;10.174;2023-12-07T00:07:20;8.00;54.20
3504;DHT22;1766;53.490;10.174;2023-12-07T00:09:21;8.00;54.20
3504;DHT22;1766;53.490;10.174;2023-12-07T00:11:24;7.90;54.20
3504;DHT22;1766;53.490;10.174;2023-12-07T00:13:26;8.00;54.30
3504;DHT22;1766;53.490;10.174;2023-12-07T00:15:28;8.00;54.20
3504;DHT22;1766;53.490;10.174;2023-12-07T00:17:30;8.00;54.30
3504;DHT22;1766;53.490;10.174;2023-12-07T00:19:31;8.00;54.80
3504;DHT22;1766;53.490;10.174;2023-12-07T00:21:33;8.00;54.40
3504;DHT22;1766;53.490;10.174;2023-12-07T00:23:35;8.00;54.40
3504;DHT22;1766;53.490;10.174;2023-12-07T00:25:37;8.10;54.50
3504;DHT22;1766;53.490;10.174;2023-12-07T00:27:41;8.10;54.50
3504;DHT22;1766;53.490;10.174;2023-12-07T00:29:42;8.10;54.40
3504;DHT22;1766;53.490;10.174;2023-12-07T00:31:44;8.10;54.30
3504;DHT22;1766;53.490;10.174;2023-12-07T00:33:45;8.10;54.30
3504;DHT22;1766;53.490;10.174;2023-12-07T00:35:47;8.10;54.40
3504;DHT22;1766;53.490;10.174;2023-12-07T00:37:49;8.10;54.40
3504;DHT22;1766;53.490;10.174;2023-12-07T00:39:51;8.20;54.50
3504;DHT22;1766;53.490;10.174;2023-12-07T00:41:53;8.20;54.40
3504;DHT22;1766;53.490;10.174;2023-12-07T00:43:56;8.20;54.50
3504;DHT22;1766;53.490;10.174;2023-12-07T00:45:58;8.20;54.50
3504;DHT22;1766;53.490;10.174;2023-12-07T00:47:58;8.20;54.40
3504;DHT22;1766;53.490;10.174;2023-12-07T00:50:00;8.20;54.50
3504;DHT22;1766;53.490;10.174;2023-12-07T00:52:03;8.20;54.50
3504;DHT22;1766;53.490;10.174;2023-12-07T00:54:05;8.20;54.50
3504;DHT22;1766;53.490;10.174;2023-12-07T00:56:07;8.30;54.50
3504;DHT22;1766;53.490;10.174;2023-12-07T00:58:10;8.20;54.50
3504;DHT22;1766;53.490;10.174;2023-12-07T01:00:13;8.20;54.50
3504;DHT22;1766;53.490;10.174;2023-12-07T01:02:16;8.20;54.50
3504;DHT22;1766;53.490;10.174;2023-12-07T01:04:17;8.20;54.50
3504;DHT22;1766;53.490;10.174;2023-12-07T01:06:19;8.20;54.50
3504;DHT22;1766;53.490;10.174;2023-12-07T01:08:21;8.30;54.50
3504;DHT22;1766;53.490;10.174;2023-12-07T01:10:22;8.30;54.50
3504;DHT22;1766;53.490;10.174;2023-12-07T01:12:25;8.30;54.50
3504;DHT22;1766;53.490;10.174;2023-12-07T01:14:27;8.30;54.50
3504;DHT22;1766;53.490;10.174;2023-12-07T01:16:30;8.30;54.50
3504;DHT22;1766;53.490;10.174;2023-12-07T01:18:31;8.30;54.50
3504;DHT22;1766;53.490;10.174;2023-12-07T01:20:33;8.30;54.50
3504;DHT22;1766;53.490;10.174;2023-12-07T01:22:35;8.30;54.50
3504;DHT22;1766;53.490;10.174;2023-12-07T01:24:37;8.30;54.50
3504;DHT22;1766;53.490;10.174;2023-12-07T01:26:39;8.30;54.40
3504;DHT22;1766;53.490;10.174;2023-12-07T01:28:40;8.30;54.40
3504;DHT22;1766;53.490;10.174;2023-12-07T01:30:42;8.30;54.50
3504;DHT22;1766;53.490;10.174;2023-12-07T01:32:45;8.20;54.30
3504;DHT22;1766;53.490;10.174;2023-12-07T01:34:47;8.20;54.50
3504;DHT22;1766;53.490;10.174;2023-12-07T01:36:48;8.20;55.00
3504;DHT22;1766;53.490;10.174;2023-12-07T01:38:50;8.20;54.50
3504;DHT22;1766;53.490;10.174;2023-12-07T01:40:51;8.20;54.50
3504;DHT22;1766;53.490;10.174;2023-12-07T01:42:53;8.10;54.40
3504;DHT22;1766;53.490;10.174;2023-12-07T01:44:55;8.10;54.40
3504;DHT22;1766;53.490;10.174;2023-12-07T01:46:57;8.20;54.50
3504;DHT22;1766;53.490;10.174;2023-12-07T01:49:01;8.10;54.40
3504;DHT22;1766;53.490;10.174;2023-12-07T01:51:04;8.10;54.60
3504;DHT22;1766;53.490;10.174;2023-12-07T01:53:07;8.10;54.60
3504;DHT22;1766;53.490;10.174;2023-12-07T01:55:09;8.10;54.70
3504;DHT22;1766;53.490;10.174;2023-12-07T01:57:12;8.30;54.80
3504;DHT22;1766;53.490;10.174;2023-12-07T01:59:13;8.10;54.50
3504;DHT22;1766;53.490;10.174;2023-12-07T02:01:16;8.20;54.70
3504;DHT22;1766;53.490;10.174;2023-12-07T02:03:18;8.20;54.60
3504;DHT22;1766;53.490;10.174;2023-12-07T02:05:21;8.20;54.60
3504;DHT22;1766;53.490;10.174;2023-12-07T02:07:23;8.20;54.70
3504;DHT22;1766;53.490;10.174;2023-12-07T02:09:25;8.20;54.60
3504;DHT22;1766;53.490;10.174;2023-12-07T02:11:27;8.20;54.60
3504;DHT22;1766;53.490;10.174;2023-12-07T02:13:29;8.30;54.60
3504;DHT22;1766;53.490;10.174;2023-12-07T02:15:30;8.30;54.60
3504;DHT22;1766;53.490;10.174;2023-12-07T02:17:35;8.30;54.60
3504;DHT22;1766;53.490;10.174;2023-12-07T02:19:49;8.30;54.60
3504;DHT22;1766;53.490;10.174;2023-12-07T02:21:59;8.30;54.60
3504;DHT22;1766;53.490;10.174;2023-12-07T02:24:02;8.30;54.50
3504;DHT22;1766;53.490;10.174;2023-12-07T02:26:07;8.30;54.50
3504;DHT22;1766;53.490;10.174;2023-12-07T02:28:11;8.30;54.50
3504;DHT22;1766;53.490;10.174;2023-12-07T02:30:14;8.20;54.40
3504;DHT22;1766;53.490;10.174;2023-12-07T02:32:16;8.20;54.50
3504;DHT22;1766;53.490;10.174;2023-12-07T02:34:17;8.20;54.40
3504;DHT22;1766;53.490;10.174;2023-12-07T02:36:21;8.20;54.50
3504;DHT22;1766;53.490;10.174;2023-12-07T02:38:26;8.20;54.50
3504;DHT22;1766;53.490;10.174;2023-12-07T02:40:28;8.20;54.50
3504;DHT22;1766;53.490;10.174;2023-12-07T02:42:31;8.20;54.50
3504;DHT22;1766;53.490;10.174;2023-12-07T02:44:36;8.20;54.50
3504;DHT22;1766;53.490;10.174;2023-12-07T02:46:38;8.20;54.40
3504;DHT22;1766;53.490;10.174;2023-12-07T02:48:40;8.10;54.40
3504;DHT22;1766;53.490;10.174;2023-12-07T02:50:41;8.10;54.40
3504;DHT22;1766;53.490;10.174;2023-12-07T02:52:44;8.10;54.50
3504;DHT22;1766;53.490;10.174;2023-12-07T02:54:46;8.10;54.50
3504;DHT22;1766;53.490;10.174;2023-12-07T02:56:48;8.10;54.50
3504;DHT22;1766;53.490;10.174;2023-12-07T02:58:49;8.10;54.50
3504;DHT22;1766;53.490;10.174;2023-12-07T03:00:52;8.10;54.40
3504;DHT22;1766;53.490;10.174;2023-12-07T03:02:54;8.10;54.40
3504;DHT22;1766;53.490;10.174;2023-12-07T03:04:56;8.10;54.50
3504;DHT22;1766;53.490;10.174;2023-12-07T03:06:58;8.10;54.50
3504;DHT22;1766;53.490;10.174;2023-12-07T03:09:00;8.20;54.60
3504;DHT22;1766;53.490;10.174;2023-12-07T03:11:02;8.20;54.60
3504;DHT22;1766;53.490;10.174;2023-12-07T03:13:03;8.20;54.60
3504;DHT22;1766;53.490;10.174;2023-12-07T03:15:06;8.20;54.50
3504;DHT22;1766;53.490;10.174;2023-12-07T03:17:11;8.20;54.60
3504;DHT22;1766;53.490;10.174;2023-12-07T03:19:13;8.20;54.50
3504;DHT22;1766;53.490;10.174;2023-12-07T03:21:15;8.20;54.50
3504;DHT22;1766;53.490;10.174;2023-12-07T03:23:17;8.20;54.40
3504;DHT22;1766;53.490;10.174;2023-12-07T03:25:19;8.10;54.40
3504;DHT22;1766;53.490;10.174;2023-12-07T03:27:21;8.10;54.40
3504;DHT22;1766;53.490;10.174;2023-12-07T03:29:22;8.10;54.40
3504;DHT22;1766;53.490;10.174;2023-12-07T03:31:24;8.10;54.40
3504;DHT22;1766;53.490;10.174;2023-12-07T03:33:27;8.10;54.50
3504;DHT22;1766;53.490;10.174;2023-12-07T03:35:29;8.10;54.50
3504;DHT22;1766;53.490;10.174;2023-12-07T03:37:31;8.10;54.20
3504;DHT22;1766;53.490;10.174;2023-12-07T03:39:32;8.10;54.40
3504;DHT22;1766;53.490;10.174;2023-12-07T03:41:34;8.10;54.50
3504;DHT22;1766;53.490;10.174;2023-12-07T03:43:36;8.10;54.50
3504;DHT22;1766;53.490;10.174;2023-12-07T03:45:38;8.10;54.50
3504;DHT22;1766;53.490;10.174;2023-12-07T03:47:39;8.00;54.30
3504;DHT22;1766;53.490;10.174;2023-12-07T03:49:44;8.00;54.40
3504;DHT22;1766;53.490;10.174;2023-12-07T03:51:45;8.00;54.50
3504;DHT22;1766;53.490;10.174;2023-12-07T03:53:47;8.00;54.30
3504;DHT22;1766;53.490;10.174;2023-12-07T03:55:48;8.00;54.50
3504;DHT22;1766;53.490;10.174;2023-12-07T03:57:50;8.10;54.50
3504;DHT22;1766;53.490;10.174;2023-12-07T03:59:52;8.00;54.50
3504;DHT22;1766;53.490;10.174;2023-12-07T04:01:54;8.00;54.50
3504;DHT22;1766;53.490;10.174;2023-12-07T04:03:56;8.10;54.60
3504;DHT22;1766;53.490;10.174;2023-12-07T04:05:59;8.10;54.60
3504;DHT22;1766;53.490;10.174;2023-12-07T04:08:01;8.10;54.50
3504;DHT22;1766;53.490;10.174;2023-12-07T04:10:03;8.10;54.60
3504;DHT22;1766;53.490;10.174;2023-12-07T04:12:06;8.10;54.70
3504;DHT22;1766;53.490;10.174;2023-12-07T04:14:08;8.20;55.20
3504;DHT22;1766;53.490;10.174;2023-12-07T04:16:11;8.20;54.60
3504;DHT22;1766;53.490;10.174;2023-12-07T04:18:13;8.20;54.60
3504;DHT22;1766;53.490;10.174;2023-12-07T04:20:15;8.20;54.60
3504;DHT22;1766;53.490;10.174;2023-12-07T04:22:18;8.20;54.60
3504;DHT22;1766;53.490;10.174;2023-12-07T04:24:20;8.20;54.50
3504;DHT22;1766;53.490;10.174;2023-12-07T04:26:22;8.20;54.50
3504;DHT22;1766;53.490;10.174;2023-12-07T04:28:24;8.30;54.60
3504;DHT22;1766;53.490;10.174;2023-12-07T04:30:26;8.30;54.60
3504;DHT22;1766;53.490;10.174;2023-12-07T04:32:27;8.30;54.60
3504;DHT22;1766;53.490;10.174;2023-12-07T04:34:30;8.20;54.50
3504;DHT22;1766;53.490;10.174;2023-12-07T04:36:32;8.20;54.50
3504;DHT22;1766;53.490;10.174;2023-12-07T04:38:35;8.20;54.50
3504;DHT22;1766;53.490;10.174;2023-12-07T04:40:37;8.30;54.60
3504;DHT22;1766;53.490;10.174;2023-12-07T04:42:39;8.30;54.60
3504;DHT22;1766;53.490;10.174;2023-12-07T04:44:41;8.30;54.70
3504;DHT22;1766;53.490;10.174;2023-12-07T04:46:43;8.30;54.70
3504;DHT22;1766;53.490;10.174;2023-12-07T04:48:45;8.30;54.60
3504;DHT22;1766;53.490;10.174;2023-12-07T04:50:47;8.30;54.50
3504;DHT22;1766;53.490;10.174;2023-12-07T04:52:49;8.30;54.50
3504;DHT22;1766;53.490;10.174;2023-12-07T04:54:52;8.30;54.50
3504;DHT22;1766;53.490;10.174;2023-12-07T04:56:53;8.30;54.60
3504;DHT22;1766;53.490;10.174;2023-12-07T04:58:54;8.30;54.60
3504;DHT22;1766;53.490;10.174;2023-12-07T05:00:56;8.30;54.60
3504;DHT22;1766;53.490;10.174;2023-12-07T05:02:57;8.20;54.50
3504;DHT22;1766;53.490;10.174;2023-12-07T05:04:59;8.20;54.50
3504;DHT22;1766;53.490;10.174;2023-12-07T05:07:01;8.20;54.60
3504;DHT22;1766;53.490;10.174;2023-12-07T05:09:04;8.30;54.60
3504;DHT22;1766;53.490;10.174;2023-12-07T05:11:07;8.20;54.60
3504;DHT22;1766;53.490;10.174;2023-12-07T05:13:09;8.20;54.60
3504;DHT22;1766;53.490;10.174;2023-12-07T05:15:11;8.20;54.70
3504;DHT22;1766;53.490;10.174;2023-12-07T05:17:13;8.30;54.80
3504;DHT22;1766;53.490;10.174;2023-12-07T05:19:15;8.30;54.80
3504;DHT22;1766;53.490;10.174;2023-12-07T05:21:16;8.30;54.80
3504;DHT22;1766;53.490;10.174;2023-12-07T05:23:17;8.30;54.70
3504;DHT22;1766;53.490;10.174;2023-12-07T05:25:19;8.30;54.70
3504;DHT22;1766;53.490;10.174;2023-12-07T05:27:22;8.30;54.60
3504;DHT22;1766;53.490;10.174;2023-12-07T05:29:24;8.30;54.50
3504;DHT22;1766;53.490;10.174;2023-12-07T05:31:26;8.20;54.40
3504;DHT22;1766;53.490;10.174;2023-12-07T05:33:28;8.20;54.50
3504;DHT22;1766;53.490;10.174;2023-12-07T05:35:30;8.20;54.50
3504;DHT22;1766;53.490;10.174;2023-12-07T05:37:32;8.20;54.50
3504;DHT22;1766;53.490;10.174;2023-12-07T05:39:33;8.20;54.70
3504;DHT22;1766;53.490;10.174;2023-12-07T05:41:36;8.20;54.80
3504;DHT22;1766;53.490;10.174;2023-12-07T05:43:40;8.10;54.60
3504;DHT22;1766;53.490;10.174;2023-12-07T05:45:42;8.20;54.70
3504;DHT22;1766;53.490;10.174;2023-12-07T05:47:44;8.20;54.70
3504;DHT22;1766;53.490;10.174;2023-12-07T05:49:45;8.20;54.70
3504;DHT22;1766;53.490;10.174;2023-12-07T05:51:47;8.20;54.70
3504;DHT22;1766;53.490;10.174;2023-12-07T05:53:49;8.20;54.70
3504;DHT22;1766;53.490;10.174;2023-12-07T05:55:51;8.20;54.60
3504;DHT22;1766;53.490;10.174;2023-12-07T05:57:53;8.20;54.70
3504;DHT22;1766;53.490;10.174;2023-12-07T05:59:55;8.20;54.70
3504;DHT22;1766;53.490;10.174;2023-12-07T06:01:57;8.20;54.70
3504;DHT22;1766;53.490;10.174;2023-12-07T06:03:59;8.20;54.70
3504;DHT22;1766;53.490;10.174;2023-12-07T06:06:01;8.30;54.70
3504;DHT22;1766;53.490;10.174;2023-12-07T06:08:02;8.40;54.70
3504;DHT22;1766;53.490;10.174;2023-12-07T06:10:05;8.30;54.70
3504;DHT22;1766;53.490;10.174;2023-12-07T06:12:07;8.30;54.70
3504;DHT22;1766;53.490;10.174;2023-12-07T06:14:09;8.30;54.20
3504;DHT22;1766;53.490;10.174;2023-12-07T06:16:13;8.40;54.70
3504;DHT22;1766;53.490;10.174;2023-12-07T06:18:17;8.40;54.70
3504;DHT22;1766;53.490;10.174;2023-12-07T06:20:19;8.40;54.70
3504;DHT22;1766;53.490;10.174;2023-12-07T06:22:21;8.40;54.70
3504;DHT22;1766;53.490;10.174;2023-12-07T06:24:23;8.40;54.80
3504;DHT22;1766;53.490;10.174;2023-12-07T06:26:25;8.40;54.80
3504;DHT22;1766;53.490;10.174;2023-12-07T06:28:27;8.50;54.90
3504;DHT22;1766;53.490;10.174;2023-12-07T06:30:29;8.50;54.80
3504;DHT22;1766;53.490;10.174;2023-12-07T06:32:32;8.50;54.80
3504;DHT22;1766;53.490;10.174;2023-12-07T06:34:39;8.50;54.70
3504;DHT22;1766;53.490;10.174;2023-12-07T06:36:40;8.50;54.70
3504;DHT22;1766;53.490;10.174;2023-12-07T06:38:42;8.50;54.70
3504;DHT22;1766;53.490;10.174;2023-12-07T06:40:44;8.50;54.70
3504;DHT22;1766;53.490;10.174;2023-12-07T06:42:46;8.50;54.70
3504;DHT22;1766;53.490;10.174;2023-12-07T06:44:48;8.60;54.80
3504;DHT22;1766;53.490;10.174;2023-12-07T06:46:50;8.60;54.80
3504;DHT22;1766;53.490;10.174;2023-12-07T06:48:53;8.50;54.60
3504;DHT22;1766;53.490;10.174;2023-12-07T06:50:54;8.50;54.70
3504;DHT22;1766;53.490;10.174;2023-12-07T06:52:56;8.50;54.70
3504;DHT22;1766;53.490;10.174;2023-12-07T06:54:58;8.50;54.70
3504;DHT22;1766;53.490;10.174;2023-12-07T06:57:00;8.50;54.70
3504;DHT22;1766;53.490;10.174;2023-12-07T06:59:02;8.50;54.60
3504;DHT22;1766;53.490;10.174;2023-12-07T07:01:04;8.40;54.50
3504;DHT22;1766;53.490;10.174;2023-12-07T07:03:06;8.40;54.60
3504;DHT22;1766;53.490;10.174;2023-12-07T07:05:09;8.40;54.70
3504;DHT22;1766;53.490;10.174;2023-12-07T07:07:12;8.40;54.70
3504;DHT22;1766;53.490;10.174;2023-12-07T07:09:13;8.40;54.70
3504;DHT22;1766;53.490;10.174;2023-12-07T07:11:16;8.40;54.70
3504;DHT22;1766;53.490;10.174;2023-12-07T07:13:18;8.50;54.80
3504;DHT22;1766;53.490;10.174;2023-12-07T07:15:20;8.50;54.70
3504;DHT22;1766;53.490;10.174;2023-12-07T07:17:23;8.50;54.70
3504;DHT22;1766;53.490;10.174;2023-12-07T07:19:25;8.50;54.80
3504;DHT22;1766;53.490;10.174;2023-12-07T07:21:27;8.50;54.90
3504;DHT22;1766;53.490;10.174;2023-12-07T07:23:29;8.50;54.90
3504;DHT22;1766;53.490;10.174;2023-12-07T07:25:31;8.50;54.80
3504;DHT22;1766;53.490;10.174;2023-12-07T07:27:33;8.50;54.70
3504;DHT22;1766;53.490;10.174;2023-12-07T07:29:35;8.50;55.30
3504;DHT22;1766;53.490;10.174;2023-12-07T07:31:37;8.50;54.70
3504;DHT22;1766;53.490;10.174;2023-12-07T07:33:39;8.50;54.80
3504;DHT22;1766;53.490;10.174;2023-12-07T07:35:41;8.50;54.70
3504;DHT22;1766;53.490;10.174;2023-12-07T07:37:44;8.50;54.80
3504;DHT22;1766;53.490;10.174;2023-12-07T07:39:46;8.60;54.90
3504;DHT22;1766;53.490;10.174;2023-12-07T07:41:48;8.50;54.80
3504;DHT22;1766;53.490;10.174;2023-12-07T07:43:50;8.60;54.80
3504;DHT22;1766;53.490;10.174;2023-12-07T07:45:52;8.50;54.70
3504;DHT22;1766;53.490;10.174;2023-12-07T07:47:54;8.50;54.70
3504;DHT22;1766;53.490;10.174;2023-12-07T07:49:55;8.60;54.90
3504;DHT22;1766;53.490;10.174;2023-12-07T07:51:59;8.60;54.90
3504;DHT22;1766;53.490;10.174;2023-12-07T07:54:02;8.60;54.90
3504;DHT22;1766;53.490;10.174;2023-12-07T07:56:04;8.60;55.00
3504;DHT22;1766;53.490;10.174;2023-12-07T07:58:06;8.70;55.10
3504;DHT22;1766;53.490;10.174;2023-12-07T08:00:09;8.70;54.90
3504;DHT22;1766;53.490;10.174;2023-12-07T08:02:10;8.60;54.90
3504;DHT22;1766;53.490;10.174;2023-12-07T08:04:12;8.60;54.70
3504;DHT22;1766;53.490;10.174;2023-12-07T08:06:14;8.60;54.80
3504;DHT22;1766;53.490;10.174;2023-12-07T08:08:16;8.60;54.90
3504;DHT22;1766;53.490;10.174;2023-12-07T08:10:19;8.60;55.00
3504;DHT22;1766;53.490;10.174;2023-12-07T08:12:22;8.60;55.00
3504;DHT22;1766;53.490;10.174;2023-12-07T08:14:24;8.60;54.90
3504;DHT22;1766;53.490;10.174;2023-12-07T08:16:26;8.60;54.90
3504;DHT22;1766;53.490;10.174;2023-12-07T08:18:28;8.70;55.00
3504;DHT22;1766;53.490;10.174;2023-12-07T08:20:30;8.60;54.90
3504;DHT22;1766;53.490;10.174;2023-12-07T08:22:33;8.60;54.90
3504;DHT22;1766;53.490;10.174;2023-12-07T08:24:35;9.40;55.50
3504;DHT22;1766;53.490;10.174;2023-12-07T08:26:38;8.60;55.00
3504;DHT22;1766;53.490;10.174;2023-12-07T08:28:41;8.60;54.90
3504;DHT22;1766;53.490;10.174;2023-12-07T08:30:43;8.60;55.00
3504;DHT22;1766;53.490;10.174;2023-12-07T08:32:45;8.60;55.00
3504;DHT22;1766;53.490;10.174;2023-12-07T08:34:47;8.60;55.10
3504;DHT22;1766;53.490;10.174;2023-12-07T08:36:49;8.60;55.10
3504;DHT22;1766;53.490;10.174;2023-12-07T08:38:51;8.60;55.10
3504;DHT22;1766;53.490;10.174;2023-12-07T08:40:52;8.70;55.30
3504;DHT22;1766;53.490;10.174;2023-12-07T08:42:55;8.70;55.20
3504;DHT22;1766;53.490;10.174;2023-12-07T08:44:57;8.70;55.10
3504;DHT22;1766;53.490;10.174;2023-12-07T08:46:59;8.70;55.10
3504;DHT22;1766;53.490;10.174;2023-12-07T08:49:01;8.80;55.20
3504;DHT22;1766;53.490;10.174;2023-12-07T08:51:03;8.80;55.20
3504;DHT22;1766;53.490;10.174;2023-12-07T08:53:05;8.80;55.30
3504;DHT22;1766;53.490;10.174;2023-12-07T08:55:08;8.80;55.20
3504;DHT22;1766;53.490;10.174;2023-12-07T08:57:08;8.80;55.10
3504;DHT22;1766;53.490;10.174;2023-12-07T08:59:12;8.80;55.00
3504;DHT22;1766;53.490;10.174;2023-12-07T09:01:13;8.70;55.00
3504;DHT22;1766;53.490;10.174;2023-12-07T09:03:15;8.70;55.10
3504;DHT22;1766;53.490;10.174;2023-12-07T09:05:17;8.70;55.20
3504;DHT22;1766;53.490;10.174;2023-12-07T09:07:20;8.70;55.40
3504;DHT22;1766;53.490;10.174;2023-12-07T09:09:21;8.70;55.40
3504;DHT22;1766;53.490;10.174;2023-12-07T09:11:24;8.80;55.40
3504;DHT22;1766;53.490;10.174;2023-12-07T09:13:26;8.80;55.30
3504;DHT22;1766;53.490;10.174;2023-12-07T09:15:30;8.80;55.40
3504;DHT22;1766;53.490;10.174;2023-12-07T09:17:33;8.80;55.50
3504;DHT22;1766;53.490;10.174;2023-12-07T09:19:34;8.90;55.40
3504;DHT22;1766;53.490;10.174;2023-12-07T09:21:36;8.90;55.50
3504;DHT22;1766;53.490;10.174;2023-12-07T09:23:37;8.90;55.50
3504;DHT22;1766;53.490;10.174;2023-12-07T09:25:39;8.90;55.50
3504;DHT22;1766;53.490;10.174;2023-12-07T09:27:41;8.90;55.40
3504;DHT22;1766;53.490;10.174;2023-12-07T09:29:43;8.90;55.30
3504;DHT22;1766;53.490;10.174;2023-12-07T09:31:46;8.90;55.40
3504;DHT22;1766;53.490;10.174;2023-12-07T09:33:49;8.90;55.40
3504;DHT22;1766;53.490;10.174;2023-12-07T09:35:51;8.90;55.40
3504;DHT22;1766;53.490;10.174;2023-12-07T09:37:53;8.90;55.40
3504;DHT22;1766;53.490;10.174;2023-12-07T09:39:54;8.90;55.50
3504;DHT22;1766;53.490;10.174;2023-12-07T09:41:56;8.90;55.50
3504;DHT22;1766;53.490;10.174;2023-12-07T09:43:56;8.90;55.50
3504;DHT22;1766;53.490;10.174;2023-12-07T09:46:01;8.90;55.40
3504;DHT22;1766;53.490;10.174;2023-12-07T09:48:04;8.90;55.40
3504;DHT22;1766;53.490;10.174;2023-12-07T09:50:07;8.90;55.60
3504;DHT22;1766;53.490;10.174;2023-12-07T09:52:10;8.90;55.60
3504;DHT22;1766;53.490;10.174;2023-12-07T09:54:13;8.90;55.50
3504;DHT22;1766;53.490;10.174;2023-12-07T09:56:15;8.90;55.50
3504;DHT22;1766;53.490;10.174;2023-12-07T09:58:17;8.90;55.50
3504;DHT22;1766;53.490;10.174;2023-12-07T10:00:19;9.00;55.60
3504;DHT22;1766;53.490;10.174;2023-12-07T10:02:22;9.00;55.60
3504;DHT22;1766;53.490;10.174;2023-12-07T10:04:25;9.00;55.60
3504;DHT22;1766;53.490;10.174;2023-12-07T10:06:42;9.00;55.50
3504;DHT22;1766;53.490;10.174;2023-12-07T10:08:45;9.00;55.60
3504;DHT22;1766;53.490;10.174;2023-12-07T10:11:01;9.00;55.60
3504;DHT22;1766;53.490;10.174;2023-12-07T10:13:05;9.00;55.60
3504;DHT22;1766;53.490;10.174;2023-12-07T10:15:11;8.90;55.40
3504;DHT22;1766;53.490;10.174;2023-12-07T10:17:13;8.90;55.50
3504;DHT22;1766;53.490;10.174;2023-12-07T10:19:17;8.90;55.50
3504;DHT22;1766;53.490;10.174;2023-12-07T10:21:32;8.90;55.70
3504;DHT22;1766;53.490;10.174;2023-12-07T10:23:35;8.90;55.60
3504;DHT22;1766;53.490;10.174;2023-12-07T10:25:39;8.90;55.50
3504;DHT22;1766;53.490;10.174;2023-12-07T10:27:42;8.90;55.50
3504;DHT22;1766;53.490;10.174;2023-12-07T10:29:44;8.90;55.40
3504;DHT22;1766;53.490;10.174;2023-12-07T10:31:46;8.90;55.40
3504;DHT22;1766;53.490;10.174;2023-12-07T10:33:48;8.90;55.40
3504;DHT22;1766;53.490;10.174;2023-12-07T10:35:50;8.80;55.50
3504;DHT22;1766;53.490;10.174;2023-12-07T10:37:54;8.80;55.50
3504;DHT22;1766;53.490;10.174;2023-12-07T10:39:56;8.80;55.50
3504;DHT22;1766;53.490;10.174;2023-12-07T10:42:00;8.80;55.50
3504;DHT22;1766;53.490;10.174;2023-12-07T10:44:04;8.90;55.60
3504;DHT22;1766;53.490;10.174;2023-12-07T10:46:09;8.90;55.50
3504;DHT22;1766;53.490;10.174;2023-12-07T10:48:11;8.90;55.50
3504;DHT22;1766;53.490;10.174;2023-12-07T10:50:14;8.90;55.50
3504;DHT22;1766;53.490;10.174;2023-12-07T10:52:22;8.90;55.70
3504;DHT22;1766;53.490;10.174;2023-12-07T10:54:33;9.00;55.70
3504;DHT22;1766;53.490;10.174;2023-12-07T10:56:43;8.90;55.70
3504;DHT22;1766;53.490;10.174;2023-12-07T10:58:47;8.90;55.50
3504;DHT22;1766;53.490;10.174;2023-12-07T11:00:50;8.90;55.50
3504;DHT22;1766;53.490;10.174;2023-12-07T11:02:53;8.90;55.70
3504;DHT22;1766;53.490;10.174;2023-12-07T11:04:56;8.90;55.50
3504;DHT22;1766;53.490;10.174;2023-12-07T11:07:05;8.90;55.90
3504;DHT22;1766;53.490;10.174;2023-12-07T11:09:13;8.90;55.60
3504;DHT22;1766;53.490;10.174;2023-12-07T11:11:28;9.00;55.70
3504;DHT22;1766;53.490;10.174;2023-12-07T11:13:33;9.00;55.70
3504;DHT22;1766;53.490;10.174;2023-12-07T11:15:36;9.00;55.70
3504;DHT22;1766;53.490;10.174;2023-12-07T11:17:54;8.90;55.60
3504;DHT22;1766;53.490;10.174;2023-12-07T11:19:56;9.00;55.70
3504;DHT22;1766;53.490;10.174;2023-12-07T11:21:58;9.10;55.70
3504;DHT22;1766;53.490;10.174;2023-12-07T11:24:00;9.10;55.60
3504;DHT22;1766;53.490;10.174;2023-12-07T11:26:03;9.10;55.50
3504;DHT22;1766;53.490;10.174;2023-12-07T11:28:07;9.00;55.40
3504;DHT22;1766;53.490;10.174;2023-12-07T11:30:10;9.00;55.40
3504;DHT22;1766;53.490;10.174;2023-12-07T11:32:13;9.00;55.50
3504;DHT22;1766;53.490;10.174;2023-12-07T11:34:33;9.00;55.60
3504;DHT22;1766;53.490;10.174;2023-12-07T11:36:36;9.00;55.70
3504;DHT22;1766;53.490;10.174;2023-12-07T11:38:38;9.00;55.50
3504;DHT22;1766;53.490;10.174;2023-12-07T11:40:41;9.00;55.50
3504;DHT22;1766;53.490;10.174;2023-12-07T11:42:43;9.00;55.60
3504;DHT22;1766;53.490;10.174;2023-12-07T11:44:48;9.00;55.50
3504;DHT22;1766;53.490;10.174;2023-12-07T11:46:51;8.90;55.50
3504;DHT22;1766;53.490;10.174;2023-12-07T11:48:53;8.90;55.50
3504;DHT22;1766;53.490;10.174;2023-12-07T11:50:57;8.90;55.50
3504;DHT22;1766;53.490;10.174;2023-12-07T11:52:59;9.00;55.60
3504;DHT22;1766;53.490;10.174;2023-12-07T11:55:01;8.90;55.50
3504;DHT22;1766;53.490;10.174;2023-12-07T11:57:03;8.90;55.50
3504;DHT22;1766;53.490;10.174;2023-12-07T11:59:05;9.00;55.70
3504;DHT22;1766;53.490;10.174;2023-12-07T12:01:08;8.90;55.50
3504;DHT22;1766;53.490;10.174;2023-12-07T12:03:10;8.90;55.70
3504;DHT22;1766;53.490;10.174;2023-12-07T12:05:11;9.00;55.70
3504;DHT22;1766;53.490;10.174;2023-12-07T12:07:13;9.00;55.70
3504;DHT22;1766;53.490;10.174;2023-12-07T12:09:15;9.00;55.70
3504;DHT22;1766;53.490;10.174;2023-12-07T12:11:18;9.10;55.80
3504;DHT22;1766;53.490;10.174;2023-12-07T12:13:26;9.10;55.70
3504;DHT22;1766;53.490;10.174;2023-12-07T12:15:27;9.20;55.80
3504;DHT22;1766;53.490;10.174;2023-12-07T12:17:31;9.20;55.70
3504;DHT22;1766;53.490;10.174;2023-12-07T12:19:33;9.20;55.60
3504;DHT22;1766;53.490;10.174;2023-12-07T12:21:37;9.20;55.60
3504;DHT22;1766;53.490;10.174;2023-12-07T12:23:40;9.20;55.70
3504;DHT22;1766;53.490;10.174;2023-12-07T12:25:43;9.30;55.80
3504;DHT22;1766;53.490;10.174;2023-12-07T12:27:46;9.30;55.80
3504;DHT22;1766;53.490;10.174;2023-12-07T12:29:47;9.30;55.80
3504;DHT22;1766;53.490;10.174;2023-12-07T12:31:51;9.40;55.70
3504;DHT22;1766;53.490;10.174;2023-12-07T12:33:54;9.40;55.70
3504;DHT22;1766;53.490;10.174;2023-12-07T12:36:06;9.40;55.60
3504;DHT22;1766;53.490;10.174;2023-12-07T12:38:10;9.40;55.70
3504;DHT22;1766;53.490;10.174;2023-12-07T12:40:15;9.40;55.50
3504;DHT22;1766;53.490;10.174;2023-12-07T12:42:18;9.40;55.70
3504;DHT22;1766;53.490;10.174;2023-12-07T12:44:20;9.40;55.50
3504;DHT22;1766;53.490;10.174;2023-12-07T12:46:23;9.40;55.60
3504;DHT22;1766;53.490;10.174;2023-12-07T12:48:25;9.40;55.70
3504;DHT22;1766;53.490;10.174;2023-12-07T12:50:37;9.40;55.70
3504;DHT22;1766;53.490;10.174;2023-12-07T12:52:40;9.40;55.60
3504;DHT22;1766;53.490;10.174;2023-12-07T12:54:42;9.30;55.60
3504;DHT22;1766;53.490;10.174;2023-12-07T12:56:44;9.40;55.70
3504;DHT22;1766;53.490;10.174;2023-12-07T12:58:47;9.40;55.70
3504;DHT22;1766;53.490;10.174;2023-12-07T13:00:49;9.40;55.70
3504;DHT22;1766;53.490;10.174;2023-12-07T13:02:50;9.40;55.60
3504;DHT22;1766;53.490;10.174;2023-12-07T13:04:51;9.40;55.70
3504;DHT22;1766;53.490;10.174;2023-12-07T13:06:55;9.50;55.80
3504;DHT22;1766;53.490;10.174;2023-12-07T13:08:57;9.50;55.70
3504;DHT22;1766;53.490;10.174;2023-12-07T13:10:59;9.50;55.70
3504;DHT22;1766;53.490;10.174;2023-12-07T13:13:00;9.50;55.70
3504;DHT22;1766;53.490;10.174;2023-12-07T13:15:04;9.50;55.60
3504;DHT22;1766;53.490;10.174;2023-12-07T13:17:06;9.50;55.60
3504;DHT22;1766;53.490;10.174;2023-12-07T13:19:09;9.50;55.50
3504;DHT22;1766;53.490;10.174;2023-12-07T13:21:11;9.40;55.40